createdAt,value
2019-03-12T00:00:31.045Z,3.70
2019-03-12T00:01:31.119Z,3.70
2019-03-12T00:02:31.128Z,3.70
2019-03-12T00:03:31.118Z,3.70
2019-03-12T00:04:31.058Z,5.80
2019-03-12T00:05:31.117Z,5.80
2019-03-12T00:06:31.124Z,5.80
2019-03-12T00:07:31.077Z,5.80
2019-03-12T00:08:31.053Z,5.80
2019-03-12T00:09:31.061Z,5.80
2019-03-12T00:10:31.069Z,5.80
2019-03-12T00:11:31.126Z,5.80
2019-03-12T00:12:31.125Z,5.80
2019-03-12T00:13:31.055Z,5.80
2019-03-12T00:14:31.077Z,2.80
2019-03-12T00:15:31.057Z,2.80
2019-03-12T00:16:31.071Z,2.80
2019-03-12T00:17:31.136Z,2.80
2019-03-12T00:18:31.059Z,2.80
2019-03-12T00:19:31.069Z,2.80
2019-03-12T00:20:31.137Z,2.80
2019-03-12T00:21:31.132Z,2.80
2019-03-12T00:22:31.166Z,2.80
2019-03-12T00:23:31.065Z,2.80
2019-03-12T00:24:31.051Z,6.60
2019-03-12T00:25:31.055Z,6.60
2019-03-12T00:26:31.125Z,6.60
2019-03-12T00:27:31.095Z,6.60
2019-03-12T00:28:31.060Z,6.60
2019-03-12T00:29:31.127Z,6.60
2019-03-12T00:30:31.128Z,6.60
2019-03-12T00:31:31.065Z,6.60
2019-03-12T00:32:31.057Z,6.60
2019-03-12T00:33:31.055Z,6.60
2019-03-12T00:34:31.142Z,3.20
2019-03-12T00:35:31.080Z,3.20
2019-03-12T00:36:31.074Z,3.20
2019-03-12T00:37:31.149Z,3.20
2019-03-12T00:38:31.083Z,3.20
2019-03-12T00:39:31.075Z,3.20
2019-03-12T00:40:31.095Z,3.20
2019-03-12T00:41:31.107Z,3.20
2019-03-12T00:42:31.089Z,3.20
2019-03-12T00:43:31.038Z,3.20
2019-03-12T00:44:31.075Z,7.60
2019-03-12T00:45:31.140Z,7.60
2019-03-12T00:46:31.145Z,7.60
2019-03-12T00:47:31.140Z,7.60
2019-03-12T00:48:31.120Z,7.60
2019-03-12T00:49:31.071Z,7.60
2019-03-12T00:50:31.143Z,7.60
2019-03-12T00:51:31.073Z,7.60
2019-03-12T00:52:31.157Z,7.60
2019-03-12T00:53:31.166Z,7.60
2019-03-12T00:54:31.083Z,6.30
2019-03-12T00:55:31.164Z,6.30
2019-03-12T00:56:31.165Z,6.30
2019-03-12T00:57:31.220Z,6.30
2019-03-12T00:58:31.163Z,6.30
2019-03-12T00:59:31.087Z,6.30
2019-03-12T01:00:31.183Z,6.30
2019-03-12T01:01:31.093Z,6.30
2019-03-12T01:02:31.162Z,6.30
2019-03-12T01:03:31.164Z,6.30
2019-03-12T01:04:31.103Z,6.20
2019-03-12T01:05:31.109Z,6.20
2019-03-12T01:06:31.171Z,6.20
2019-03-12T01:07:31.114Z,6.20
2019-03-12T01:08:31.106Z,6.20
2019-03-12T01:09:31.095Z,6.20
2019-03-12T01:10:31.061Z,6.20
2019-03-12T01:11:31.115Z,6.20
2019-03-12T01:12:31.172Z,6.20
2019-03-12T01:13:31.184Z,6.20
2019-03-12T01:14:31.110Z,5.20
2019-03-12T01:15:31.117Z,5.20
2019-03-12T01:16:31.180Z,5.20
2019-03-12T01:17:31.184Z,5.20
2019-03-12T01:18:31.127Z,5.20
2019-03-12T01:19:31.114Z,5.20
2019-03-12T01:20:31.181Z,5.20
2019-03-12T01:21:31.124Z,5.20
2019-03-12T01:22:31.117Z,5.20
2019-03-12T01:23:31.125Z,5.20
2019-03-12T01:24:31.197Z,2.10
2019-03-12T01:25:31.167Z,2.10
2019-03-12T01:26:31.110Z,2.10
2019-03-12T01:27:31.175Z,2.10
2019-03-12T01:28:31.110Z,2.10
2019-03-12T01:29:31.099Z,2.10
2019-03-12T01:30:31.171Z,2.10
2019-03-12T01:31:31.114Z,2.10
2019-03-12T01:32:31.174Z,2.10
2019-03-12T01:33:31.101Z,2.10
2019-03-12T01:34:31.188Z,1.60
2019-03-12T01:35:31.072Z,1.60
2019-03-12T01:36:31.079Z,1.60
2019-03-12T01:37:31.130Z,1.60
2019-03-12T01:38:31.134Z,1.60
2019-03-12T01:39:31.182Z,1.60
2019-03-12T01:40:31.185Z,1.60
2019-03-12T01:41:31.140Z,1.60
2019-03-12T01:42:31.191Z,1.60
2019-03-12T01:43:31.193Z,1.60
2019-03-12T01:44:31.208Z,3.10
2019-03-12T01:45:31.194Z,3.10
2019-03-12T01:46:31.200Z,3.10
2019-03-12T01:47:31.184Z,3.10
2019-03-12T01:48:31.193Z,3.10
2019-03-12T01:49:31.196Z,3.10
2019-03-12T01:50:31.186Z,3.10
2019-03-12T01:51:31.476Z,3.10
2019-03-12T01:52:31.206Z,3.10
2019-03-12T01:53:31.140Z,3.10
2019-03-12T01:54:31.208Z,1.80
2019-03-12T01:55:31.198Z,1.80
2019-03-12T01:56:31.146Z,1.80
2019-03-12T01:57:31.136Z,1.80
2019-03-12T01:58:31.130Z,1.80
2019-03-12T01:59:31.203Z,1.80
2019-03-12T02:00:31.131Z,1.80
2019-03-12T02:01:31.203Z,1.80
2019-03-12T02:02:31.215Z,1.80
2019-03-12T02:03:31.135Z,1.80
2019-03-12T02:04:31.145Z,2.60
2019-03-12T02:05:31.133Z,2.60
2019-03-12T02:06:31.213Z,2.60
2019-03-12T02:07:31.233Z,2.60
2019-03-12T02:08:31.100Z,2.60
2019-03-12T02:09:31.270Z,2.60
2019-03-12T02:10:31.150Z,2.60
2019-03-12T02:11:31.149Z,2.60
2019-03-12T02:12:31.153Z,2.60
2019-03-12T02:13:31.157Z,2.60
2019-03-12T02:14:31.140Z,5.40
2019-03-12T02:15:31.225Z,5.40
2019-03-12T02:16:31.151Z,5.40
2019-03-12T02:17:31.144Z,5.40
2019-03-12T02:18:31.144Z,5.40
2019-03-12T02:19:31.219Z,5.40
2019-03-12T02:20:31.222Z,5.40
2019-03-12T02:21:31.148Z,5.40
2019-03-12T02:22:31.145Z,5.40
2019-03-12T02:23:31.221Z,5.40
2019-03-12T02:24:31.281Z,4.40
2019-03-12T02:25:31.229Z,4.40
2019-03-12T02:26:31.149Z,4.40
2019-03-12T02:27:31.221Z,4.40
2019-03-12T02:28:31.234Z,4.40
2019-03-12T02:29:31.157Z,4.40
2019-03-12T02:30:31.239Z,4.40
2019-03-12T02:31:31.229Z,4.40
2019-03-12T02:32:31.228Z,4.40
2019-03-12T02:33:31.271Z,4.40
2019-03-12T02:34:31.248Z,6.60
2019-03-12T02:35:31.234Z,6.60
2019-03-12T02:36:31.191Z,6.60
2019-03-12T02:37:31.162Z,6.60
2019-03-12T02:38:31.239Z,6.60
2019-03-12T02:39:31.176Z,6.60
2019-03-12T02:40:31.240Z,6.60
2019-03-12T02:41:31.242Z,6.60
2019-03-12T02:42:31.235Z,6.60
2019-03-12T02:43:31.182Z,6.60
2019-03-12T02:44:31.132Z,5.00
2019-03-12T02:45:31.106Z,5.00
2019-03-12T02:46:31.227Z,5.00
2019-03-12T02:47:31.228Z,5.00
2019-03-12T02:48:31.187Z,5.00
2019-03-12T02:49:31.217Z,5.00
2019-03-12T02:50:31.424Z,5.00
2019-03-12T02:51:31.188Z,5.00
2019-03-12T02:52:31.214Z,5.00
2019-03-12T02:53:31.164Z,5.00
2019-03-12T02:54:31.234Z,8.60
2019-03-12T02:55:31.163Z,8.60
2019-03-12T02:56:31.236Z,8.60
2019-03-12T02:57:31.168Z,8.60
2019-03-12T02:58:31.233Z,8.60
2019-03-12T02:59:31.174Z,8.60
2019-03-12T03:00:31.168Z,8.60
2019-03-12T03:01:31.175Z,8.60
2019-03-12T03:02:31.169Z,8.60
2019-03-12T03:03:31.129Z,8.60
2019-03-12T03:04:31.261Z,4.40
2019-03-12T03:05:31.180Z,4.40
2019-03-12T03:06:31.334Z,4.40
2019-03-12T03:07:31.193Z,4.40
2019-03-12T03:08:31.258Z,4.40
2019-03-12T03:09:31.258Z,4.40
2019-03-12T03:10:31.287Z,4.40
2019-03-12T03:11:31.200Z,4.40
2019-03-12T03:12:31.317Z,4.40
2019-03-12T03:13:31.203Z,4.40
2019-03-12T03:14:31.256Z,6.20
2019-03-12T03:15:31.259Z,6.20
2019-03-12T03:16:31.131Z,6.20
2019-03-12T03:17:31.247Z,6.20
2019-03-12T03:18:31.232Z,6.20
2019-03-12T03:19:31.209Z,6.20
2019-03-12T03:20:31.235Z,6.20
2019-03-12T03:21:31.152Z,6.20
2019-03-12T03:22:31.262Z,6.20
2019-03-12T03:23:31.247Z,6.20
2019-03-12T03:24:31.338Z,6.40
2019-03-12T03:25:31.285Z,6.40
2019-03-12T03:26:31.225Z,6.40
2019-03-12T03:27:31.235Z,6.40
2019-03-12T03:28:31.255Z,6.40
2019-03-12T03:29:31.216Z,6.40
2019-03-12T03:30:31.280Z,6.40
2019-03-12T03:31:31.161Z,6.40
2019-03-12T03:32:31.226Z,6.40
2019-03-12T03:33:31.215Z,6.40
2019-03-12T03:34:31.297Z,7.30
2019-03-12T03:35:31.237Z,7.30
2019-03-12T03:36:31.208Z,7.30
2019-03-12T03:37:31.289Z,7.30
2019-03-12T03:38:31.271Z,7.30
2019-03-12T03:39:31.301Z,7.30
2019-03-12T03:40:31.232Z,7.30
2019-03-12T03:41:34.525Z,7.30
2019-03-12T03:42:31.223Z,7.30
2019-03-12T03:43:31.289Z,7.30
2019-03-12T03:44:31.275Z,7.00
2019-03-12T03:45:31.204Z,7.00
2019-03-12T03:46:31.197Z,7.00
2019-03-12T03:47:31.273Z,7.00
2019-03-12T03:48:31.280Z,7.00
2019-03-12T03:49:31.210Z,7.00
2019-03-12T03:50:31.206Z,7.00
2019-03-12T03:51:31.273Z,7.00
2019-03-12T03:52:31.214Z,7.00
2019-03-12T03:53:31.275Z,7.00
2019-03-12T03:54:31.215Z,6.80
2019-03-12T03:55:31.222Z,6.80
2019-03-12T03:56:31.297Z,6.80
2019-03-12T03:57:31.224Z,6.80
2019-03-12T03:58:31.218Z,6.80
2019-03-12T03:59:31.216Z,6.80
2019-03-12T04:00:31.294Z,6.80
2019-03-12T04:01:31.362Z,6.80
2019-03-12T04:02:31.298Z,6.80
2019-03-12T04:03:31.219Z,6.80
2019-03-12T04:04:31.223Z,7.30
2019-03-12T04:05:31.237Z,7.30
2019-03-12T04:06:34.181Z,7.30
2019-03-12T04:07:31.311Z,7.30
2019-03-12T04:08:31.229Z,7.30
2019-03-12T04:09:31.304Z,7.30
2019-03-12T04:10:31.315Z,7.30
2019-03-12T04:11:31.291Z,7.30
2019-03-12T04:12:31.251Z,7.30
2019-03-12T04:13:31.250Z,7.30
2019-03-12T04:14:31.243Z,5.90
2019-03-12T04:15:31.294Z,5.90
2019-03-12T04:16:31.250Z,5.90
2019-03-12T04:17:31.251Z,5.90
2019-03-12T04:18:31.249Z,5.90
2019-03-12T04:19:31.272Z,5.90
2019-03-12T04:20:31.323Z,5.90
2019-03-12T04:21:31.306Z,5.90
2019-03-12T04:22:31.307Z,5.90
2019-03-12T04:23:31.312Z,5.90
2019-03-12T04:24:31.353Z,4.90
2019-03-12T04:25:31.257Z,4.90
2019-03-12T04:26:31.241Z,4.90
2019-03-12T04:27:31.318Z,4.90
2019-03-12T04:28:31.375Z,4.90
2019-03-12T04:29:31.242Z,4.90
2019-03-12T04:30:31.255Z,4.90
2019-03-12T04:31:31.313Z,4.90
2019-03-12T04:32:31.253Z,4.90
2019-03-12T04:33:31.362Z,4.90
2019-03-12T04:34:31.209Z,10.60
2019-03-12T04:35:31.315Z,10.60
2019-03-12T04:36:31.270Z,10.60
2019-03-12T04:37:31.322Z,10.60
2019-03-12T04:38:31.327Z,10.60
2019-03-12T04:39:31.245Z,10.60
2019-03-12T04:40:31.262Z,10.60
2019-03-12T04:41:31.331Z,10.60
2019-03-12T04:42:31.326Z,10.60
2019-03-12T04:43:31.250Z,10.60
2019-03-12T04:44:31.163Z,4.00
2019-03-12T04:45:31.256Z,4.00
2019-03-12T04:46:31.263Z,4.00
2019-03-12T04:47:31.285Z,4.00
2019-03-12T04:48:31.165Z,4.00
2019-03-12T04:49:31.331Z,4.00
2019-03-12T04:50:31.169Z,4.00
2019-03-12T04:51:31.169Z,4.00
2019-03-12T04:52:31.258Z,4.00
2019-03-12T04:53:31.168Z,4.00
2019-03-12T04:54:31.270Z,4.60
2019-03-12T04:55:31.400Z,4.60
2019-03-12T04:56:31.259Z,4.60
2019-03-12T04:57:31.345Z,4.60
2019-03-12T04:58:31.329Z,4.60
2019-03-12T04:59:31.274Z,4.60
2019-03-12T05:00:31.228Z,4.60
2019-03-12T05:01:31.336Z,4.60
2019-03-12T05:02:31.339Z,4.60
2019-03-12T05:03:31.324Z,4.60
2019-03-12T05:04:31.263Z,7.60
2019-03-12T05:05:31.275Z,7.60
2019-03-12T05:06:31.338Z,7.60
2019-03-12T05:07:31.340Z,7.60
2019-03-12T05:08:31.267Z,7.60
2019-03-12T05:09:31.270Z,7.60
2019-03-12T05:10:31.341Z,7.60
2019-03-12T05:11:31.391Z,7.60
2019-03-12T05:12:31.340Z,7.60
2019-03-12T05:13:31.346Z,7.60
2019-03-12T05:14:31.265Z,7.90
2019-03-12T05:15:31.330Z,7.90
2019-03-12T05:16:31.279Z,7.90
2019-03-12T05:17:31.415Z,7.90
2019-03-12T05:18:31.263Z,7.90
2019-03-12T05:19:31.266Z,7.90
2019-03-12T05:20:31.261Z,7.90
2019-03-12T05:21:31.280Z,7.90
2019-03-12T05:22:31.336Z,7.90
2019-03-12T05:23:31.271Z,7.90
2019-03-12T05:24:31.342Z,7.50
2019-03-12T05:25:31.348Z,7.50
2019-03-12T05:26:31.357Z,7.50
2019-03-12T05:27:31.348Z,7.50
2019-03-12T05:28:31.280Z,7.50
2019-03-12T05:29:31.279Z,7.50
2019-03-12T05:30:31.355Z,7.50
2019-03-12T05:31:31.281Z,7.50
2019-03-12T05:32:31.282Z,7.50
2019-03-12T05:33:31.298Z,7.50
2019-03-12T05:34:31.368Z,5.40
2019-03-12T05:35:31.351Z,5.40
2019-03-12T05:36:31.255Z,5.40
2019-03-12T05:37:31.360Z,5.40
2019-03-12T05:38:31.306Z,5.40
2019-03-12T05:39:31.359Z,5.40
2019-03-12T05:40:31.298Z,5.40
2019-03-12T05:41:31.476Z,5.40
2019-03-12T05:42:31.359Z,5.40
2019-03-12T05:43:31.368Z,5.40
2019-03-12T05:44:31.375Z,5.40
2019-03-12T05:45:31.339Z,3.40
2019-03-12T05:46:31.283Z,3.40
2019-03-12T05:47:31.277Z,3.40
2019-03-12T05:48:31.355Z,3.40
2019-03-12T05:49:31.337Z,3.40
2019-03-12T05:50:31.340Z,3.40
2019-03-12T05:51:31.339Z,3.40
2019-03-12T05:52:31.232Z,3.40
2019-03-12T05:53:31.312Z,3.40
2019-03-12T05:54:31.342Z,3.40
2019-03-12T05:55:31.326Z,4.80
2019-03-12T05:56:31.283Z,4.80
2019-03-12T05:57:31.361Z,4.80
2019-03-12T05:58:31.362Z,4.80
2019-03-12T05:59:31.368Z,4.80
2019-03-12T06:00:31.289Z,4.80
2019-03-12T06:01:31.364Z,4.80
2019-03-12T06:02:31.411Z,4.80
2019-03-12T06:03:31.380Z,4.80
2019-03-12T06:04:31.320Z,4.80
2019-03-12T06:05:31.313Z,4.80
2019-03-12T06:06:31.385Z,4.80
2019-03-12T06:07:31.373Z,4.80
2019-03-12T06:08:31.374Z,4.80
2019-03-12T06:09:31.375Z,4.80
2019-03-12T06:10:31.391Z,4.80
2019-03-12T06:11:31.324Z,4.80
2019-03-12T06:12:31.314Z,4.80
2019-03-12T06:13:31.317Z,4.80
2019-03-12T06:14:31.318Z,4.80
2019-03-12T06:15:31.311Z,5.10
2019-03-12T06:16:31.310Z,5.10
2019-03-12T06:17:31.381Z,5.10
2019-03-12T06:18:31.316Z,5.10
2019-03-12T06:19:31.383Z,5.10
2019-03-12T06:20:31.319Z,5.10
2019-03-12T06:21:31.395Z,5.10
2019-03-12T06:22:31.317Z,5.10
2019-03-12T06:23:31.385Z,5.10
2019-03-12T06:24:31.385Z,5.10
2019-03-12T06:25:31.283Z,1.80
2019-03-12T06:26:31.334Z,1.80
2019-03-12T06:27:31.405Z,1.80
2019-03-12T06:28:31.420Z,1.80
2019-03-12T06:29:31.322Z,1.80
2019-03-12T06:30:31.393Z,1.80
2019-03-12T06:31:31.399Z,1.80
2019-03-12T06:32:31.320Z,1.80
2019-03-12T06:33:31.324Z,1.80
2019-03-12T06:34:31.330Z,1.80
2019-03-12T06:35:31.396Z,3.30
2019-03-12T06:36:31.336Z,3.30
2019-03-12T06:37:31.419Z,3.30
2019-03-12T06:38:31.399Z,3.30
2019-03-12T06:39:31.328Z,3.30
2019-03-12T06:40:31.358Z,3.30
2019-03-12T06:41:31.337Z,3.30
2019-03-12T06:42:31.332Z,3.30
2019-03-12T06:43:31.400Z,3.30
2019-03-12T06:44:31.408Z,3.30
2019-03-12T06:45:31.391Z,2.50
2019-03-12T06:46:31.304Z,2.50
2019-03-12T06:47:31.482Z,2.50
2019-03-12T06:48:31.274Z,2.50
2019-03-12T06:49:31.408Z,2.50
2019-03-12T06:50:31.331Z,2.50
2019-03-12T06:51:31.306Z,2.50
2019-03-12T06:52:31.329Z,2.50
2019-03-12T06:53:31.312Z,2.50
2019-03-12T06:54:31.324Z,2.50
2019-03-12T06:55:31.410Z,7.30
2019-03-12T06:56:31.411Z,7.30
2019-03-12T06:57:31.417Z,7.30
2019-03-12T06:58:31.412Z,7.30
2019-03-12T06:59:31.372Z,7.30
2019-03-12T07:00:31.344Z,7.30
2019-03-12T07:01:31.344Z,7.30
2019-03-12T07:02:31.412Z,7.30
2019-03-12T07:03:31.349Z,7.30
2019-03-12T07:04:31.415Z,7.30
2019-03-12T07:05:31.353Z,3.30
2019-03-12T07:06:31.414Z,3.30
2019-03-12T07:07:31.420Z,3.30
2019-03-12T07:08:31.347Z,3.30
2019-03-12T07:09:31.423Z,3.30
2019-03-12T07:10:31.349Z,3.30
2019-03-12T07:11:31.420Z,3.30
2019-03-12T07:12:31.348Z,3.30
2019-03-12T07:13:31.358Z,3.30
2019-03-12T07:14:31.421Z,3.30
2019-03-12T07:15:31.417Z,3.70
2019-03-12T07:16:31.416Z,3.70
2019-03-12T07:17:31.419Z,3.70
2019-03-12T07:18:31.298Z,3.70
2019-03-12T07:19:31.424Z,3.70
2019-03-12T07:20:31.434Z,3.70
2019-03-12T07:21:31.353Z,3.70
2019-03-12T07:22:31.363Z,3.70
2019-03-12T07:23:31.393Z,3.70
2019-03-12T07:24:31.418Z,3.70
2019-03-12T07:25:31.427Z,3.80
2019-03-12T07:26:31.368Z,3.80
2019-03-12T07:27:31.438Z,3.80
2019-03-12T07:28:31.365Z,3.80
2019-03-12T07:29:31.431Z,3.80
2019-03-12T07:30:31.362Z,3.80
2019-03-12T07:31:31.367Z,3.80
2019-03-12T07:32:31.431Z,3.80
2019-03-12T07:33:31.406Z,3.80
2019-03-12T07:34:36.513Z,3.80
2019-03-12T07:35:31.356Z,4.10
2019-03-12T07:36:31.343Z,4.10
2019-03-12T07:37:31.376Z,4.10
2019-03-12T07:38:31.389Z,4.10
2019-03-12T07:39:31.427Z,4.10
2019-03-12T07:40:31.366Z,4.10
2019-03-12T07:41:32.749Z,4.10
2019-03-12T07:42:31.399Z,4.10
2019-03-12T07:43:31.365Z,4.10
2019-03-12T07:44:31.352Z,4.10
2019-03-12T07:45:31.431Z,4.80
2019-03-12T07:46:31.360Z,4.80
2019-03-12T07:47:35.941Z,4.80
2019-03-12T07:48:31.379Z,4.80
2019-03-12T07:49:31.378Z,4.80
2019-03-12T07:50:31.341Z,4.80
2019-03-12T07:51:31.349Z,4.80
2019-03-12T07:52:31.442Z,4.80
2019-03-12T07:53:31.399Z,4.80
2019-03-12T07:54:31.417Z,4.80
2019-03-12T07:55:31.437Z,9.50
2019-03-12T07:56:31.358Z,9.50
2019-03-12T07:58:35.981Z,9.50
2019-03-12T07:59:31.379Z,9.50
2019-03-12T08:00:31.324Z,9.50
2019-03-12T08:01:31.445Z,9.50
2019-03-12T08:02:31.470Z,9.50
2019-03-12T08:03:31.447Z,9.50
2019-03-12T08:04:31.377Z,9.50
2019-03-12T08:05:31.450Z,5.70
2019-03-12T08:06:31.344Z,5.70
2019-03-12T08:07:31.369Z,5.70
2019-03-12T08:08:31.406Z,5.70
2019-03-12T08:09:31.363Z,5.70
2019-03-12T08:10:33.773Z,5.70
2019-03-12T08:11:31.454Z,5.70
2019-03-12T08:12:34.277Z,5.70
2019-03-12T08:13:31.380Z,5.70
2019-03-12T08:14:31.382Z,5.70
2019-03-12T08:15:31.411Z,7.00
2019-03-12T08:16:31.557Z,7.00
2019-03-12T08:17:31.457Z,7.00
2019-03-12T08:18:31.395Z,7.00
2019-03-12T08:19:31.455Z,7.00
2019-03-12T08:20:31.393Z,7.00
2019-03-12T08:21:31.403Z,7.00
2019-03-12T08:22:31.377Z,7.00
2019-03-12T08:23:31.342Z,7.00
2019-03-12T08:24:31.397Z,7.00
2019-03-12T08:25:31.483Z,8.50
2019-03-12T08:26:31.470Z,8.50
2019-03-12T08:27:31.404Z,8.50
2019-03-12T08:28:31.475Z,8.50
2019-03-12T08:29:31.413Z,8.50
2019-03-12T08:30:31.475Z,8.50
2019-03-12T08:31:31.483Z,8.50
2019-03-12T08:32:31.407Z,8.50
2019-03-12T08:33:31.430Z,8.50
2019-03-12T08:34:31.478Z,8.50
2019-03-12T08:35:31.435Z,9.50
2019-03-12T08:36:31.378Z,9.50
2019-03-12T08:37:31.476Z,9.50
2019-03-12T08:38:31.418Z,9.50
2019-03-12T08:39:31.482Z,9.50
2019-03-12T08:40:31.488Z,9.50
2019-03-12T08:41:31.413Z,9.50
2019-03-12T08:42:31.482Z,9.50
2019-03-12T08:43:31.417Z,9.50
2019-03-12T08:44:31.484Z,9.50
2019-03-12T08:45:31.402Z,8.60
2019-03-12T08:46:31.478Z,8.60
2019-03-12T08:47:31.405Z,8.60
2019-03-12T08:48:31.426Z,8.60
2019-03-12T08:49:34.668Z,8.60
2019-03-12T08:50:31.482Z,8.60
2019-03-12T08:51:31.392Z,8.60
2019-03-12T08:52:31.458Z,8.60
2019-03-12T08:53:31.492Z,8.60
2019-03-12T08:54:31.398Z,8.60
2019-03-12T08:55:31.399Z,7.50
2019-03-12T08:56:32.818Z,7.50
2019-03-12T08:57:31.380Z,7.50
2019-03-12T08:58:31.421Z,7.50
2019-03-12T08:59:31.487Z,7.50
2019-03-12T09:00:31.490Z,7.50
2019-03-12T09:01:31.422Z,7.50
2019-03-12T09:02:31.490Z,7.50
2019-03-12T09:03:31.457Z,7.50
2019-03-12T09:04:31.460Z,7.50
2019-03-12T09:05:31.401Z,3.90
2019-03-12T09:06:31.495Z,3.90
2019-03-12T09:07:31.459Z,3.90
2019-03-12T09:08:31.454Z,3.90
2019-03-12T09:09:31.421Z,3.90
2019-03-12T09:10:31.489Z,3.90
2019-03-12T09:11:31.424Z,3.90
2019-03-12T09:12:31.510Z,3.90
2019-03-12T09:13:31.425Z,3.90
2019-03-12T09:14:31.433Z,3.90
2019-03-12T09:15:31.507Z,5.60
2019-03-12T09:16:31.512Z,5.60
2019-03-12T09:17:31.506Z,5.60
2019-03-12T09:18:31.441Z,5.60
2019-03-12T09:19:31.518Z,5.60
2019-03-12T09:20:31.512Z,5.60
2019-03-12T09:21:31.441Z,5.60
2019-03-12T09:22:31.535Z,5.60
2019-03-12T09:23:31.511Z,5.60
2019-03-12T09:24:31.465Z,5.60
2019-03-12T09:25:31.514Z,7.30
2019-03-12T09:26:31.520Z,7.30
2019-03-12T09:27:31.512Z,7.30
2019-03-12T09:28:31.516Z,7.30
2019-03-12T09:29:31.525Z,7.30
2019-03-12T09:30:31.455Z,7.30
2019-03-12T09:31:31.525Z,7.30
2019-03-12T09:32:31.449Z,7.30
2019-03-12T09:33:31.450Z,7.30
2019-03-12T09:34:31.529Z,7.30
2019-03-12T09:35:31.523Z,5.90
2019-03-12T09:36:31.482Z,5.90
2019-03-12T09:37:31.526Z,5.90
2019-03-12T09:38:31.524Z,5.90
2019-03-12T09:39:31.467Z,5.90
2019-03-12T09:40:31.532Z,5.90
2019-03-12T09:41:31.522Z,5.90
2019-03-12T09:42:31.459Z,5.90
2019-03-12T09:43:31.524Z,5.90
2019-03-12T09:44:31.473Z,5.90
2019-03-12T09:45:31.464Z,5.50
2019-03-12T09:46:31.530Z,5.50
2019-03-12T09:47:31.539Z,5.50
2019-03-12T09:48:31.533Z,5.50
2019-03-12T09:49:31.469Z,5.50
2019-03-12T09:50:31.531Z,5.50
2019-03-12T09:51:31.463Z,5.50
2019-03-12T09:52:31.541Z,5.50
2019-03-12T09:53:31.536Z,5.50
2019-03-12T09:54:31.467Z,5.50
2019-03-12T09:55:31.472Z,6.90
2019-03-12T09:56:31.470Z,6.90
2019-03-12T09:57:31.538Z,6.90
2019-03-12T09:58:31.475Z,6.90
2019-03-12T09:59:31.546Z,6.90
2019-03-12T10:00:31.470Z,6.90
2019-03-12T10:01:31.538Z,6.90
2019-03-12T10:02:31.541Z,6.90
2019-03-12T10:03:31.546Z,6.90
2019-03-12T10:04:31.539Z,6.90
2019-03-12T10:05:31.473Z,4.60
2019-03-12T10:06:31.542Z,4.60
2019-03-12T10:07:31.485Z,4.60
2019-03-12T10:08:31.572Z,4.60
2019-03-12T10:09:31.630Z,4.60
2019-03-12T10:10:31.483Z,4.60
2019-03-12T10:11:31.477Z,4.60
2019-03-12T10:12:31.555Z,4.60
2019-03-12T10:13:31.555Z,4.60
2019-03-12T10:14:31.483Z,4.60
2019-03-12T10:15:31.525Z,5.99
2019-03-12T10:16:31.528Z,5.99
2019-03-12T10:17:31.454Z,5.99
2019-03-12T10:18:31.479Z,5.99
2019-03-12T10:19:31.532Z,5.99
2019-03-12T10:20:31.532Z,5.99
2019-03-12T10:21:31.477Z,5.99
2019-03-12T10:22:31.485Z,5.99
2019-03-12T10:23:31.496Z,5.99
2019-03-12T10:24:31.461Z,5.99
2019-03-12T10:25:31.492Z,6.80
2019-03-12T10:26:31.488Z,6.80
2019-03-12T10:27:31.570Z,6.80
2019-03-12T10:28:31.555Z,6.80
2019-03-12T10:29:31.492Z,6.80
2019-03-12T10:30:31.491Z,6.80
2019-03-12T10:31:31.542Z,6.80
2019-03-12T10:32:31.568Z,6.80
2019-03-12T10:33:31.501Z,6.80
2019-03-12T10:34:31.564Z,6.80
2019-03-12T10:35:31.505Z,9.10
2019-03-12T10:36:31.486Z,9.10
2019-03-12T10:37:31.485Z,9.10
2019-03-12T10:38:31.572Z,9.10
2019-03-12T10:39:31.555Z,9.10
2019-03-12T10:40:31.529Z,9.10
2019-03-12T10:41:31.553Z,9.10
2019-03-12T10:42:31.492Z,9.10
2019-03-12T10:43:31.511Z,9.10
2019-03-12T10:44:31.474Z,9.10
2019-03-12T10:45:31.578Z,5.30
2019-03-12T10:46:31.542Z,5.30
2019-03-12T10:47:31.567Z,5.30
2019-03-12T10:48:31.506Z,5.30
2019-03-12T10:49:37.455Z,5.30
2019-03-12T10:50:31.584Z,5.30
2019-03-12T10:51:31.577Z,5.30
2019-03-12T10:52:31.584Z,5.30
2019-03-12T10:53:31.508Z,5.30
2019-03-12T10:54:31.510Z,5.30
2019-03-12T10:55:31.596Z,8.60
2019-03-12T10:56:31.509Z,8.60
2019-03-12T10:57:31.526Z,8.60
2019-03-12T10:58:31.513Z,8.60
2019-03-12T10:59:31.580Z,8.60
2019-03-12T11:00:31.590Z,8.60
2019-03-12T11:01:31.600Z,8.60
2019-03-12T11:02:31.511Z,8.60
2019-03-12T11:03:31.585Z,8.60
2019-03-12T11:04:31.584Z,8.60
2019-03-12T11:05:44.906Z,7.50
2019-03-12T11:06:31.588Z,7.50
2019-03-12T11:07:31.524Z,7.50
2019-03-12T11:08:31.588Z,7.50
2019-03-12T11:09:31.590Z,7.50
2019-03-12T11:10:31.545Z,7.50
2019-03-12T11:11:31.589Z,7.50
2019-03-12T11:12:31.535Z,7.50
2019-03-12T11:13:31.602Z,7.50
2019-03-12T11:14:31.593Z,7.50
2019-03-12T11:15:31.515Z,7.60
2019-03-12T11:16:31.513Z,7.60
2019-03-12T11:17:31.585Z,7.60
2019-03-12T11:18:31.523Z,7.60
2019-03-12T11:19:31.466Z,7.60
2019-03-12T11:20:31.517Z,7.60
2019-03-12T11:21:31.544Z,7.60
2019-03-12T11:22:31.513Z,7.60
2019-03-12T11:23:31.484Z,7.60
2019-03-12T11:24:31.560Z,7.60
2019-03-12T11:25:31.530Z,4.30
2019-03-12T11:26:31.601Z,4.30
2019-03-12T11:27:31.537Z,4.30
2019-03-12T11:28:31.610Z,4.30
2019-03-12T11:29:31.533Z,4.30
2019-03-12T11:30:31.570Z,4.30
2019-03-12T11:31:31.533Z,4.30
2019-03-12T11:32:31.607Z,4.30
2019-03-12T11:33:31.544Z,4.30
2019-03-12T11:34:31.606Z,4.30
2019-03-12T11:35:38.753Z,6.60
2019-03-12T11:36:31.745Z,6.60
2019-03-12T11:37:31.562Z,6.60
2019-03-12T11:38:31.623Z,6.60
2019-03-12T11:39:31.652Z,6.60
2019-03-12T11:40:32.774Z,6.60
2019-03-12T11:41:31.605Z,6.60
2019-03-12T11:42:31.642Z,6.60
2019-03-12T11:43:31.649Z,6.60
2019-03-12T11:44:31.643Z,6.60
2019-03-12T11:45:36.766Z,3.90
2019-03-12T11:46:41.388Z,3.90
2019-03-12T11:47:31.638Z,3.90
2019-03-12T11:48:31.628Z,3.90
2019-03-12T11:49:31.629Z,3.90
2019-03-12T11:50:31.549Z,3.90
2019-03-12T11:51:31.669Z,3.90
2019-03-12T11:52:31.615Z,3.90
2019-03-12T11:53:31.745Z,3.90
2019-03-12T11:54:31.550Z,3.90
2019-03-12T11:55:31.621Z,3.90
2019-03-12T11:56:31.566Z,3.60
2019-03-12T11:57:31.725Z,3.60
2019-03-12T11:58:31.575Z,3.60
2019-03-12T11:59:31.575Z,3.60
2019-03-12T12:00:31.660Z,3.60
2019-03-12T12:01:31.575Z,3.60
2019-03-12T12:02:31.629Z,3.60
2019-03-12T12:03:31.557Z,3.60
2019-03-12T12:04:31.639Z,3.60
2019-03-12T12:05:31.599Z,3.60
2019-03-12T12:06:31.527Z,6.80
2019-03-12T12:07:31.566Z,6.80
2019-03-12T12:08:31.753Z,6.80
2019-03-12T12:09:31.554Z,6.80
2019-03-12T12:10:31.593Z,6.80
2019-03-12T12:11:31.621Z,6.80
2019-03-12T12:12:31.621Z,6.80
2019-03-12T12:13:31.525Z,6.80
2019-03-12T12:14:31.559Z,6.80
2019-03-12T12:15:31.595Z,6.80
2019-03-12T12:16:31.572Z,5.20
2019-03-12T12:17:31.662Z,5.20
2019-03-12T12:18:31.637Z,5.20
2019-03-12T12:19:31.578Z,5.20
2019-03-12T12:20:31.588Z,5.20
2019-03-12T12:21:31.570Z,5.20
2019-03-12T12:22:31.648Z,5.20
2019-03-12T12:23:31.643Z,5.20
2019-03-12T12:24:31.644Z,5.20
2019-03-12T12:25:31.642Z,5.20
2019-03-12T12:26:31.641Z,6.70
2019-03-12T12:27:31.637Z,6.70
2019-03-12T12:28:31.572Z,6.70
2019-03-12T12:29:31.643Z,6.70
2019-03-12T12:30:31.651Z,6.70
2019-03-12T12:31:31.612Z,6.70
2019-03-12T12:32:31.600Z,6.70
2019-03-12T12:33:31.586Z,6.70
2019-03-12T12:34:31.577Z,6.70
2019-03-12T12:35:31.654Z,6.70
2019-03-12T12:36:31.552Z,5.00
2019-03-12T12:37:31.516Z,5.00
2019-03-12T12:38:31.518Z,5.00
2019-03-12T12:39:31.541Z,5.00
2019-03-12T12:40:31.645Z,5.00
2019-03-12T12:41:31.593Z,5.00
2019-03-12T12:42:31.556Z,5.00
2019-03-12T12:43:31.599Z,5.00
2019-03-12T12:44:31.635Z,5.00
2019-03-12T12:45:31.644Z,5.00
2019-03-12T12:46:31.532Z,3.80
2019-03-12T12:47:31.652Z,3.80
2019-03-12T12:48:31.578Z,3.80
2019-03-12T12:49:31.651Z,3.80
2019-03-12T12:50:31.586Z,3.80
2019-03-12T12:51:31.583Z,3.80
2019-03-12T12:52:31.652Z,3.80
2019-03-12T12:53:31.663Z,3.80
2019-03-12T12:54:31.644Z,3.80
2019-03-12T12:55:31.682Z,3.80
2019-03-12T12:56:31.598Z,3.99
2019-03-12T12:57:31.594Z,3.99
2019-03-12T12:58:31.677Z,3.99
2019-03-12T12:59:31.597Z,3.99
2019-03-12T13:00:31.604Z,3.99
2019-03-12T13:01:31.729Z,3.99
2019-03-12T13:02:31.667Z,3.99
2019-03-12T13:03:31.675Z,3.99
2019-03-12T13:04:31.605Z,3.99
2019-03-12T13:05:31.617Z,3.99
2019-03-12T13:06:31.630Z,4.00
2019-03-12T13:07:31.666Z,4.00
2019-03-12T13:08:31.589Z,4.00
2019-03-12T13:09:31.574Z,4.00
2019-03-12T13:10:31.573Z,4.00
2019-03-12T13:11:31.655Z,4.00
2019-03-12T13:12:31.542Z,4.00
2019-03-12T13:13:31.656Z,4.00
2019-03-12T13:14:40.983Z,4.00
2019-03-12T13:15:31.635Z,4.00
2019-03-12T13:16:31.633Z,8.90
2019-03-12T13:17:31.612Z,8.90
2019-03-12T13:18:31.672Z,8.90
2019-03-12T13:19:31.653Z,8.90